Time;durP1;ratioP1;P1;durP2;ratioP2;P2;SDS_P1;SDS_P2;PMS_P1;PMS_P2;Temp;Humidity;BMP_temperature;BMP_pressure;BME280_temperature;BME280_humidity;BME280_pressure;Samples;Min_cycle;Max_cycle;Signal;HPM_P1;HPM_P2
2022/03/17 00:01:21;;;;;;;8.55;6.03;;;17.40;66.50;;;;;;5012615;28;20049;-14
2022/03/17 00:03:46;;;;;;;6.97;5.30;;;17.40;66.40;;;;;;5011283;28;20052;-13
2022/03/17 00:06:13;;;;;;;5.53;5.03;;;17.40;66.40;;;;;;4981814;28;20570;-13
2022/03/17 00:08:39;;;;;;;6.25;5.40;;;17.40;66.40;;;;;;4997559;28;20054;-13
2022/03/17 00:11:05;;;;;;;5.72;5.22;;;17.40;66.40;;;;;;4991120;28;20035;-16
2022/03/17 00:13:30;;;;;;;6.78;5.80;;;17.40;66.30;;;;;;4978238;28;20053;-13
2022/03/17 00:15:56;;;;;;;5.95;5.43;;;17.40;66.40;;;;;;4990914;28;20104;-13
2022/03/17 00:18:22;;;;;;;5.38;4.90;;;17.30;66.40;;;;;;4998593;28;20445;-14
2022/03/17 00:20:47;;;;;;;5.35;4.85;;;17.30;66.40;;;;;;4998540;28;20045;-13
2022/03/17 00:23:13;;;;;;;5.75;5.13;;;17.40;66.50;;;;;;4981712;28;20054;-12
2022/03/17 00:25:39;;;;;;;5.35;4.85;;;17.30;66.50;;;;;;4979406;28;20591;-13
2022/03/17 00:28:04;;;;;;;5.25;4.82;;;17.30;66.50;;;;;;4990654;28;20050;-13
2022/03/17 00:30:30;;;;;;;6.28;5.07;;;17.30;66.40;;;;;;4994511;28;20065;-14
2022/03/17 00:32:55;;;;;;;5.18;4.75;;;17.30;66.50;;;;;;4998412;28;20046;-12
2022/03/17 00:35:36;;;;;;;6.40;5.10;;;17.30;66.50;;;;;;4998555;28;20050;-14
2022/03/17 00:38:07;;;;;;;4.63;4.32;;;17.30;66.50;;;;;;4997109;28;20106;-13
2022/03/17 00:40:33;;;;;;;4.47;3.92;;;17.30;66.50;;;;;;4998851;28;20050;-14
2022/03/17 00:43:00;;;;;;;4.50;4.10;;;17.30;66.60;;;;;;4997935;28;20050;-14
2022/03/17 00:45:26;;;;;;;5.10;4.60;;;17.30;66.30;;;;;;4996769;28;20418;-14
2022/03/17 00:47:52;;;;;;;5.32;4.82;;;17.30;66.50;;;;;;4997503;28;20048;-13
2022/03/17 00:50:17;;;;;;;4.78;4.32;;;17.20;66.30;;;;;;4995364;28;20046;-13
2022/03/17 00:52:43;;;;;;;4.57;4.05;;;17.30;66.50;;;;;;4997555;28;20050;-13
2022/03/17 00:55:08;;;;;;;4.95;4.47;;;17.30;66.30;;;;;;4980999;28;20403;-13
2022/03/17 00:57:36;;;;;;;5.38;4.35;;;17.30;66.20;;;;;;4997723;28;20078;-14
2022/03/17 01:00:05;;;;;;;4.20;3.90;;;17.40;66.10;;;;;;4996901;28;20053;-14
2022/03/17 01:02:31;;;;;;;4.00;3.63;;;17.30;66.20;;;;;;4998361;28;20048;-13
2022/03/17 01:04:56;;;;;;;3.58;3.28;;;17.30;66.20;;;;;;4997878;28;20100;-14
2022/03/17 01:07:22;;;;;;;4.60;3.65;;;17.30;66.30;;;;;;4995863;28;20046;-14
2022/03/17 01:09:48;;;;;;;4.15;3.75;;;17.30;66.40;;;;;;4994864;28;20125;-14
2022/03/17 01:12:13;;;;;;;4.13;3.72;;;17.30;66.30;;;;;;4992469;28;20065;-14
2022/03/17 01:14:39;;;;;;;4.07;3.78;;;17.30;66.30;;;;;;4987869;28;20074;-13
2022/03/17 01:17:04;;;;;;;3.95;3.65;;;17.20;66.30;;;;;;4986966;28;20149;-13
2022/03/17 01:19:30;;;;;;;4.10;3.80;;;17.20;66.40;;;;;;4988018;28;20043;-13
2022/03/17 01:21:56;;;;;;;4.90;4.40;;;17.10;66.50;;;;;;4989558;28;20085;-14
2022/03/17 01:24:21;;;;;;;4.07;3.78;;;17.10;66.60;;;;;;4991001;28;20038;-14
2022/03/17 01:26:47;;;;;;;3.97;3.58;;;17.10;66.50;;;;;;4990970;28;20081;-14
2022/03/17 01:29:13;;;;;;;4.05;3.75;;;17.10;66.60;;;;;;4990780;28;20046;-13
2022/03/17 01:31:38;;;;;;;3.67;3.38;;;17.10;66.50;;;;;;4990034;28;20573;-13
2022/03/17 01:34:04;;;;;;;3.78;3.47;;;17.10;66.50;;;;;;4997905;28;20093;-13
2022/03/17 01:36:30;;;;;;;4.57;4.18;;;17.10;66.50;;;;;;4998528;28;20104;-14
2022/03/17 01:38:56;;;;;;;4.07;3.75;;;17.10;66.40;;;;;;4979049;28;20062;-13
2022/03/17 01:41:22;;;;;;;4.28;3.88;;;17.10;66.30;;;;;;4978831;28;20050;-13
2022/03/17 01:43:48;;;;;;;3.60;3.30;;;17.10;66.30;;;;;;4978276;28;20079;-13
2022/03/17 01:46:15;;;;;;;3.72;3.33;;;17.10;66.40;;;;;;4995337;28;20057;-14
2022/03/17 01:48:41;;;;;;;3.83;3.53;;;17.10;66.40;;;;;;4998072;28;20130;-14
2022/03/17 01:51:07;;;;;;;4.30;3.85;;;17.10;66.30;;;;;;4993621;28;20038;-13
2022/03/17 01:53:33;;;;;;;3.33;3.13;;;17.10;66.20;;;;;;4986831;28;20495;-14
2022/03/17 01:55:59;;;;;;;3.22;2.97;;;17.10;66.20;;;;;;4972378;28;20057;-13
2022/03/17 01:58:24;;;;;;;3.58;3.28;;;17.10;66.20;;;;;;4997627;28;20584;-12
2022/03/17 02:00:51;;;;;;;3.55;3.25;;;17.10;66.10;;;;;;4996579;28;20058;-14
2022/03/17 02:03:17;;;;;;;4.07;3.58;;;17.20;66.00;;;;;;4992667;28;20054;-14
2022/03/17 02:05:43;;;;;;;3.15;2.95;;;17.10;65.90;;;;;;4997557;28;20483;-14
2022/03/17 02:08:09;;;;;;;4.10;3.75;;;17.10;65.90;;;;;;4997009;28;20035;-13
2022/03/17 02:13:08;;;;;;;3.47;3.28;;;17.10;65.70;;;;;;4997247;28;20061;-13
2022/03/17 02:13:21;;;;;;;3.38;3.17;;;17.10;65.80;;;;;;4996301;28;20054;-13
2022/03/17 02:15:53;;;;;;;2.70;2.50;;;17.20;65.70;;;;;;4996226;28;20042;-13
2022/03/17 02:18:19;;;;;;;2.95;2.75;;;17.20;65.60;;;;;;4996344;28;20057;-14
2022/03/17 02:20:45;;;;;;;3.22;3.03;;;17.20;65.60;;;;;;4984545;28;20042;-14
2022/03/17 02:25:59;;;;;;;3.15;2.78;;;17.20;65.50;;;;;;4995850;28;20057;-13
2022/03/17 02:28:25;;;;;;;3.33;3.03;;;17.10;65.40;;;;;;4997322;28;20049;-12
2022/03/17 02:30:51;;;;;;;2.42;2.22;;;17.10;65.50;;;;;;4995353;28;20053;-14
2022/03/17 02:33:17;;;;;;;3.05;2.75;;;17.20;65.50;;;;;;4996112;28;20121;-13
2022/03/17 02:35:43;;;;;;;2.95;2.75;;;17.10;65.40;;;;;;4994540;28;20050;-13
2022/03/17 02:38:11;;;;;;;2.70;2.60;;;17.20;65.50;;;;;;4994930;28;20872;-13
2022/03/17 02:40:37;;;;;;;2.67;2.47;;;17.10;65.40;;;;;;4993772;28;20503;-12
2022/03/17 02:43:04;;;;;;;2.92;2.72;;;17.20;65.40;;;;;;4995258;28;20407;-13
2022/03/17 02:45:30;;;;;;;3.13;2.92;;;17.10;65.30;;;;;;4996754;28;20096;-13
2022/03/17 02:47:56;;;;;;;3.00;2.80;;;17.20;65.50;;;;;;4994226;28;20077;-13
2022/03/17 02:50:22;;;;;;;2.55;2.35;;;17.20;65.40;;;;;;4996949;28;20046;-13
2022/03/17 02:52:48;;;;;;;2.50;2.30;;;17.20;65.40;;;;;;4995450;28;20039;-13
2022/03/17 02:55:15;;;;;;;3.50;2.95;;;17.20;65.30;;;;;;4994549;28;20047;-14
2022/03/17 02:57:41;;;;;;;2.42;2.22;;;17.20;65.40;;;;;;5005457;28;20042;-14
2022/03/17 03:00:08;;;;;;;2.55;2.35;;;17.10;65.30;;;;;;4995877;28;20056;-14
2022/03/17 03:02:33;;;;;;;2.45;2.33;;;17.10;65.40;;;;;;4996621;28;20121;-13
2022/03/17 03:04:59;;;;;;;2.58;2.38;;;17.10;65.30;;;;;;4996170;28;20511;-13
2022/03/17 03:07:25;;;;;;;2.40;2.30;;;17.10;65.20;;;;;;4994538;28;20048;-14
2022/03/17 03:09:51;;;;;;;2.47;2.30;;;17.10;65.40;;;;;;4996548;28;20543;-14
2022/03/17 03:12:16;;;;;;;2.22;2.08;;;17.10;65.30;;;;;;4995694;28;20050;-13
2022/03/17 03:14:42;;;;;;;2.70;2.13;;;17.10;65.30;;;;;;4981978;28;20100;-14
2022/03/17 03:17:08;;;;;;;2.35;2.15;;;17.10;65.30;;;;;;4982831;28;20046;-14
2022/03/17 03:19:33;;;;;;;2.28;2.08;;;17.10;65.20;;;;;;4995665;28;20053;-13
2022/03/17 03:21:59;;;;;;;2.58;2.38;;;17.10;65.30;;;;;;4995432;28;20887;-13
2022/03/17 03:24:25;;;;;;;2.38;2.17;;;17.10;65.30;;;;;;4992732;28;20504;-15
2022/03/17 03:26:52;;;;;;;2.67;2.00;;;17.10;65.30;;;;;;4995762;28;20058;-14
2022/03/17 03:29:23;;;;;;;2.10;2.00;;;17.10;65.30;;;;;;4993964;28;20050;-14
2022/03/17 03:31:53;;;;;;;2.05;1.90;;;17.10;65.30;;;;;;4993978;28;20534;-14
2022/03/17 03:34:19;;;;;;;1.95;1.85;;;17.10;65.20;;;;;;4991806;28;20069;-15
2022/03/17 03:39:29;;;;;;;2.03;1.92;;;17.10;65.20;;;;;;4994833;28;20058;-14
2022/03/17 03:41:55;;;;;;;2.15;1.95;;;17.10;65.20;;;;;;4989236;28;20040;-15
2022/03/17 03:44:20;;;;;;;2.30;2.20;;;17.10;65.20;;;;;;4976399;28;20049;-15
2022/03/17 03:46:46;;;;;;;2.40;2.15;;;17.00;65.10;;;;;;4985613;28;20479;-14
2022/03/17 03:49:12;;;;;;;2.45;2.30;;;17.10;65.20;;;;;;4995308;28;20047;-14
2022/03/17 03:51:37;;;;;;;2.15;1.95;;;17.10;65.20;;;;;;4990133;28;20053;-15
2022/03/17 03:54:18;;;;;;;1.95;1.85;;;17.10;65.20;;;;;;4980288;28;20115;-15
2022/03/17 03:56:49;;;;;;;2.30;2.10;;;17.10;65.20;;;;;;4988264;28;20046;-15
2022/03/17 04:01:44;;;;;;;1.75;1.65;;;17.10;65.30;;;;;;4993322;28;20054;-14
2022/03/17 04:04:14;;;;;;;2.35;1.92;;;17.00;65.10;;;;;;4990715;28;20038;-14
2022/03/17 04:06:45;;;;;;;1.90;1.80;;;17.10;65.20;;;;;;4991917;28;20038;-14
2022/03/17 04:09:14;;;;;;;1.90;1.80;;;17.00;65.20;;;;;;4994029;28;20035;-15
2022/03/17 04:11:40;;;;;;;1.80;1.70;;;17.00;65.10;;;;;;4994218;28;20051;-14
2022/03/17 04:14:07;;;;;;;1.67;1.52;;;17.00;65.10;;;;;;4992532;28;20042;-14
2022/03/17 04:16:32;;;;;;;1.80;1.70;;;17.00;65.20;;;;;;4993524;28;20534;-14
2022/03/17 04:18:58;;;;;;;1.77;1.67;;;17.00;65.30;;;;;;4983376;28;20515;-14
2022/03/17 04:21:24;;;;;;;1.77;1.67;;;17.00;65.10;;;;;;4995852;28;20038;-14
2022/03/17 04:23:50;;;;;;;1.52;1.42;;;17.10;65.20;;;;;;4994357;28;20592;-14
2022/03/17 04:26:15;;;;;;;1.90;1.80;;;17.00;65.20;;;;;;4995104;28;20049;-14
2022/03/17 04:28:41;;;;;;;1.67;1.58;;;17.00;65.20;;;;;;4990384;28;20035;-15
2022/03/17 04:31:07;;;;;;;2.33;1.98;;;17.00;65.20;;;;;;4983666;28;20101;-14
2022/03/17 04:33:32;;;;;;;1.98;1.77;;;17.00;65.20;;;;;;4977060;28;20047;-15
2022/03/17 04:35:58;;;;;;;2.38;2.08;;;17.00;65.10;;;;;;4993777;28;20046;-15
2022/03/17 04:38:25;;;;;;;1.77;1.67;;;17.00;65.10;;;;;;4995455;28;20038;-13
2022/03/17 04:40:50;;;;;;;2.00;1.73;;;17.00;65.10;;;;;;4993220;28;20415;-14
2022/03/17 04:43:17;;;;;;;1.73;1.63;;;17.00;65.10;;;;;;4975423;28;20050;-14
2022/03/17 04:45:44;;;;;;;1.58;1.48;;;17.00;65.10;;;;;;4990195;28;20114;-13
2022/03/17 04:48:10;;;;;;;1.63;1.52;;;17.00;65.20;;;;;;4996536;28;20189;-14
2022/03/17 04:50:35;;;;;;;1.73;1.63;;;17.00;65.30;;;;;;4996625;28;20050;-15
2022/03/17 04:55:45;;;;;;;1.50;1.40;;;17.00;65.20;;;;;;4990797;28;20096;-14
2022/03/17 04:58:11;;;;;;;1.58;1.48;;;17.00;65.30;;;;;;4986682;28;20134;-14
2022/03/17 05:00:37;;;;;;;1.70;1.60;;;17.00;66.00;;;;;;4987131;28;21496;-14
2022/03/17 05:03:02;;;;;;;1.60;1.50;;;17.00;65.30;;;;;;4987864;28;20042;-15
2022/03/17 05:05:28;;;;;;;1.60;1.50;;;17.00;65.30;;;;;;4987990;28;20125;-14
2022/03/17 05:07:57;;;;;;;1.70;1.60;;;16.90;65.20;;;;;;4987363;28;20042;-15
2022/03/17 05:10:23;;;;;;;1.63;1.52;;;17.00;65.20;;;;;;4986288;28;20074;-13
2022/03/17 05:12:48;;;;;;;1.42;1.33;;;17.00;65.20;;;;;;4989251;28;20053;-16
2022/03/17 05:15:14;;;;;;;1.40;1.30;;;17.00;65.10;;;;;;4986647;28;20046;-15
2022/03/17 05:17:40;;;;;;;1.25;1.20;;;17.00;65.10;;;;;;4989593;28;20125;-13
2022/03/17 05:20:09;;;;;;;1.30;1.20;;;17.00;65.10;;;;;;4988576;28;20137;-13
2022/03/17 05:22:36;;;;;;;1.50;1.27;;;16.90;65.10;;;;;;4988375;28;20038;-14
2022/03/17 05:25:04;;;;;;;1.20;1.20;;;16.90;65.10;;;;;;4988146;28;20047;-15
2022/03/17 05:27:30;;;;;;;1.50;1.40;;;16.90;65.10;;;;;;4987245;28;20057;-13
2022/03/17 05:29:56;;;;;;;1.30;1.20;;;16.90;65.10;;;;;;4975007;28;20046;-14
2022/03/17 05:32:21;;;;;;;1.20;1.15;;;16.90;65.10;;;;;;4985199;28;20074;-14
2022/03/17 05:34:47;;;;;;;1.20;1.20;;;16.90;65.20;;;;;;4986957;28;20078;-13
2022/03/17 05:37:13;;;;;;;1.40;1.30;;;16.90;65.10;;;;;;4989901;28;20077;-14
2022/03/17 05:39:40;;;;;;;1.20;1.10;;;16.90;65.10;;;;;;4989375;28;20121;-14
2022/03/17 05:42:06;;;;;;;1.58;1.27;;;16.90;65.10;;;;;;4989260;28;20057;-14
2022/03/17 05:44:33;;;;;;;1.23;1.20;;;16.90;65.10;;;;;;4989262;28;20120;-14
2022/03/17 05:46:58;;;;;;;1.67;1.58;;;16.90;65.10;;;;;;4987413;28;20062;-14
2022/03/17 05:49:24;;;;;;;1.38;1.30;;;16.90;65.20;;;;;;4985368;28;20050;-13
2022/03/17 05:51:49;;;;;;;1.25;1.15;;;16.90;65.10;;;;;;4987705;28;20125;-14
2022/03/17 05:54:15;;;;;;;1.30;1.20;;;16.90;65.10;;;;;;4988251;28;20046;-14
2022/03/17 05:56:40;;;;;;;1.55;1.20;;;16.90;65.10;;;;;;4988967;28;20041;-14
2022/03/17 05:59:06;;;;;;;1.27;1.17;;;16.90;65.10;;;;;;4983327;28;20054;-14
2022/03/17 06:01:32;;;;;;;1.00;1.00;;;16.90;65.20;;;;;;4988586;28;20050;-14
2022/03/17 06:03:57;;;;;;;1.50;1.38;;;16.80;65.10;;;;;;4990165;28;20053;-13
2022/03/17 06:06:23;;;;;;;1.30;1.20;;;16.80;65.10;;;;;;4986207;28;20504;-13
2022/03/17 06:08:48;;;;;;;1.05;1.00;;;16.80;65.10;;;;;;4987717;28;20096;-14
2022/03/17 06:11:14;;;;;;;1.30;1.20;;;16.80;65.00;;;;;;4987824;28;20403;-14
2022/03/17 06:13:40;;;;;;;1.35;1.25;;;16.90;65.10;;;;;;4985612;28;20046;-14
2022/03/17 06:16:06;;;;;;;1.30;1.20;;;16.90;65.10;;;;;;4992448;28;20038;-14
2022/03/17 06:18:32;;;;;;;1.15;1.10;;;16.90;65.10;;;;;;4989684;28;20053;-13
2022/03/17 06:20:58;;;;;;;1.38;1.27;;;16.90;65.10;;;;;;4988578;28;20090;-13
2022/03/17 06:23:23;;;;;;;1.40;1.30;;;16.90;65.10;;;;;;4988476;28;20078;-14
2022/03/17 06:25:49;;;;;;;1.17;1.10;;;16.80;65.20;;;;;;4990632;28;20501;-14
2022/03/17 06:28:15;;;;;;;1.20;1.10;;;16.80;65.10;;;;;;4993028;28;20045;-14
2022/03/17 06:30:41;;;;;;;1.60;1.50;;;16.80;65.90;;;;;;4994325;28;20407;-15
2022/03/17 06:33:07;;;;;;;1.08;1.00;;;16.80;65.20;;;;;;4989548;28;20584;-14
2022/03/17 06:35:33;;;;;;;1.10;1.00;;;16.80;65.00;;;;;;4985770;28;20046;-14
2022/03/17 06:37:59;;;;;;;1.30;1.20;;;16.80;65.00;;;;;;4662915;28;10001098;-14
2022/03/17 06:40:26;;;;;;;1.50;1.23;;;16.80;65.10;;;;;;4992520;28;20252;-14
2022/03/17 06:42:51;;;;;;;1.30;1.10;;;16.80;65.00;;;;;;5006377;28;20042;-16
2022/03/17 06:45:17;;;;;;;1.58;1.30;;;16.80;65.40;;;;;;4992729;28;20050;-14
2022/03/17 06:47:43;;;;;;;1.20;1.20;;;16.80;65.40;;;;;;4992438;28;20069;-14
2022/03/17 06:50:09;;;;;;;1.17;0.88;;;16.70;65.50;;;;;;5000745;28;20046;-14
2022/03/17 06:52:35;;;;;;;0.90;0.90;;;16.70;65.80;;;;;;4997494;28;20054;-14
2022/03/17 06:55:01;;;;;;;1.17;1.05;;;16.70;65.80;;;;;;4985167;28;20050;-13
2022/03/17 06:57:27;;;;;;;1.73;1.10;;;16.70;65.90;;;;;;4986656;28;20046;-14
2022/03/17 06:59:52;;;;;;;0.93;0.93;;;16.70;65.80;;;;;;4985125;28;20864;-13
2022/03/17 07:02:18;;;;;;;1.25;1.15;;;16.70;65.90;;;;;;4985696;28;20565;-14
2022/03/17 07:04:44;;;;;;;1.25;1.08;;;16.70;65.90;;;;;;4987022;28;20038;-13
2022/03/17 07:07:10;;;;;;;1.67;1.40;;;16.70;65.90;;;;;;4983464;28;20046;-14
2022/03/17 07:09:35;;;;;;;0.93;0.93;;;16.60;65.80;;;;;;4983880;28;20077;-14
2022/03/17 07:12:01;;;;;;;1.10;1.00;;;16.60;65.90;;;;;;4984242;28;20050;-14
2022/03/17 07:14:27;;;;;;;1.17;1.08;;;16.60;66.00;;;;;;4987206;28;20058;-13
2022/03/17 07:16:52;;;;;;;1.13;1.02;;;16.60;66.00;;;;;;4985048;28;20081;-13
2022/03/17 07:19:18;;;;;;;2.05;0.95;;;16.60;65.90;;;;;;4988528;28;20054;-14
2022/03/17 07:21:43;;;;;;;0.90;0.90;;;16.60;65.90;;;;;;4990391;28;20066;-14
2022/03/17 07:24:09;;;;;;;1.20;1.10;;;16.60;65.90;;;;;;4983004;28;20042;-13
2022/03/17 07:26:35;;;;;;;0.88;0.88;;;16.60;65.90;;;;;;4991491;28;20176;-14
2022/03/17 07:29:02;;;;;;;0.90;0.70;;;16.60;65.70;;;;;;4990337;28;20400;-13
2022/03/17 07:31:27;;;;;;;1.23;1.00;;;16.60;65.90;;;;;;4995801;28;20102;-14
2022/03/17 07:33:53;;;;;;;0.85;0.85;;;16.70;65.90;;;;;;4978975;28;20567;-13
2022/03/17 07:36:19;;;;;;;1.02;0.93;;;16.60;65.70;;;;;;4976317;28;20511;-14
2022/03/17 07:38:45;;;;;;;1.15;0.73;;;16.60;65.70;;;;;;4976671;28;20041;-13
2022/03/17 07:41:10;;;;;;;0.90;0.80;;;16.70;65.80;;;;;;4976601;28;20039;-14
2022/03/17 07:43:36;;;;;;;0.95;0.88;;;16.70;65.80;;;;;;4976802;28;20066;-13
2022/03/17 07:46:02;;;;;;;1.77;1.40;;;16.70;65.70;;;;;;4988489;28;20077;-13
2022/03/17 07:48:27;;;;;;;0.90;0.63;;;16.70;65.90;;;;;;4994074;28;20046;-14
2022/03/17 07:50:53;;;;;;;0.68;0.68;;;16.60;65.90;;;;;;4994368;28;20415;-14
2022/03/17 07:53:18;;;;;;;1.35;1.00;;;16.60;65.90;;;;;;4983035;28;20070;-13
2022/03/17 07:55:44;;;;;;;0.70;0.70;;;16.70;65.80;;;;;;4988413;28;20683;-14
2022/03/17 07:58:13;;;;;;;0.70;0.70;;;16.70;65.80;;;;;;4974787;28;20035;-13
2022/03/17 08:00:41;;;;;;;1.15;1.00;;;16.70;65.70;;;;;;4975335;28;20047;-13
2022/03/17 08:03:07;;;;;;;1.02;0.73;;;16.70;65.60;;;;;;4977979;28;20171;-14
2022/03/17 08:05:32;;;;;;;1.42;1.10;;;16.70;65.50;;;;;;4976484;28;20063;-13
2022/03/17 08:08:02;;;;;;;1.75;0.93;;;16.70;65.40;;;;;;4975308;28;20068;-14
2022/03/17 08:10:28;;;;;;;0.73;0.73;;;16.70;65.30;;;;;;4975958;28;20057;-14
2022/03/17 08:12:54;;;;;;;2.70;0.70;;;16.70;65.20;;;;;;4976421;28;20042;-12
2022/03/17 08:15:20;;;;;;;0.75;0.65;;;16.80;65.30;;;;;;4976233;28;20054;-13
2022/03/17 08:17:46;;;;;;;0.88;0.82;;;16.70;65.20;;;;;;4983636;28;20042;-13
2022/03/17 08:20:11;;;;;;;0.85;0.60;;;16.70;65.20;;;;;;4995138;28;20055;-13
2022/03/17 08:22:37;;;;;;;1.05;0.85;;;16.80;65.20;;;;;;4996473;28;20406;-13
2022/03/17 08:25:03;;;;;;;2.10;0.73;;;16.70;65.20;;;;;;4999681;28;20138;-14
2022/03/17 08:27:29;;;;;;;1.75;0.50;;;16.70;65.40;;;;;;4999094;28;20050;-13
2022/03/17 08:29:55;;;;;;;0.77;0.77;;;16.70;65.50;;;;;;4995973;28;20513;-14
2022/03/17 08:32:21;;;;;;;0.70;0.70;;;16.70;65.50;;;;;;4982155;28;20381;-14
2022/03/17 08:34:46;;;;;;;1.13;0.80;;;16.70;65.30;;;;;;4998854;28;20046;-14
2022/03/17 08:37:12;;;;;;;0.65;0.55;;;16.70;65.30;;;;;;4998681;28;20384;-13
2022/03/17 08:39:38;;;;;;;0.60;0.60;;;16.70;65.30;;;;;;4999559;28;20038;-13
2022/03/17 08:42:03;;;;;;;0.70;0.70;;;16.70;65.30;;;;;;4999348;28;20042;-14
2022/03/17 08:44:29;;;;;;;1.85;0.60;;;16.70;65.30;;;;;;4998416;28;20053;-13
2022/03/17 08:49:39;;;;;;;1.67;0.80;;;16.60;65.50;;;;;;4980241;28;20077;-14
2022/03/17 08:52:05;;;;;;;1.10;0.50;;;16.70;65.20;;;;;;4979876;28;20035;-14
2022/03/17 08:54:34;;;;;;;0.75;0.75;;;16.80;65.00;;;;;;4994075;28;20042;-14
2022/03/17 08:57:00;;;;;;;0.57;0.57;;;16.70;65.00;;;;;;4990643;28;20400;-13
2022/03/17 08:59:30;;;;;;;1.05;0.65;;;16.70;65.00;;;;;;4979163;28;20397;-13
2022/03/17 09:01:56;;;;;;;0.75;0.70;;;16.70;65.00;;;;;;4983225;28;20053;-13
2022/03/17 09:04:21;;;;;;;1.85;0.60;;;16.70;65.10;;;;;;4998709;28;20045;-13
2022/03/17 09:06:47;;;;;;;0.80;0.80;;;16.70;65.00;;;;;;4998845;28;20125;-13
2022/03/17 09:09:13;;;;;;;1.40;0.70;;;16.70;65.00;;;;;;4998440;28;20045;-15
2022/03/17 09:11:39;;;;;;;0.63;0.60;;;16.70;64.90;;;;;;4995036;28;20047;-13
2022/03/17 09:14:04;;;;;;;0.60;0.52;;;16.70;64.80;;;;;;4979525;28;20043;-12
2022/03/17 09:16:30;;;;;;;0.50;0.50;;;16.70;65.00;;;;;;4978917;28;20043;-14
2022/03/17 09:18:57;;;;;;;0.68;0.57;;;16.80;64.90;;;;;;4979651;28;20070;-13
2022/03/17 09:21:22;;;;;;;1.23;0.75;;;16.80;64.70;;;;;;4998168;28;20066;-14
2022/03/17 09:23:48;;;;;;;0.60;0.55;;;16.80;64.60;;;;;;4998608;28;20041;-14
2022/03/17 09:26:14;;;;;;;1.08;0.98;;;16.80;64.60;;;;;;4998217;28;20034;-13
2022/03/17 09:28:40;;;;;;;0.55;0.55;;;16.90;64.60;;;;;;4998000;28;20132;-14
2022/03/17 09:31:05;;;;;;;0.60;0.57;;;16.80;64.60;;;;;;4998834;28;20046;-13
2022/03/17 09:33:31;;;;;;;0.80;0.60;;;16.90;64.60;;;;;;4995494;28;20070;-14
2022/03/17 09:35:57;;;;;;;0.52;0.52;;;16.90;65.20;;;;;;4978997;28;20049;-13
2022/03/17 09:38:23;;;;;;;0.52;0.52;;;16.90;64.30;;;;;;4990443;28;20093;-14
2022/03/17 09:40:49;;;;;;;0.80;0.52;;;17.00;64.40;;;;;;4998442;28;20556;-14
2022/03/17 09:43:28;;;;;;;0.45;0.45;;;17.00;64.40;;;;;;4997940;28;20480;-14
2022/03/17 09:45:58;;;;;;;0.52;0.52;;;17.00;64.20;;;;;;4998443;28;20049;-13
2022/03/17 09:48:25;;;;;;;1.33;0.52;;;17.00;64.10;;;;;;4997846;28;20039;-13
2022/03/17 09:50:55;;;;;;;0.55;0.50;;;17.10;64.00;;;;;;4998330;28;20046;-13
2022/03/17 09:53:22;;;;;;;0.63;0.40;;;17.00;64.00;;;;;;4995322;28;20486;-14
2022/03/17 09:55:47;;;;;;;0.52;0.52;;;17.00;64.00;;;;;;4998066;28;20496;-14
2022/03/17 09:58:13;;;;;;;0.80;0.63;;;17.00;64.00;;;;;;4997695;28;20412;-13
2022/03/17 10:00:48;;;;;;;0.75;0.60;;;17.10;64.00;;;;;;4997373;28;20054;-13
2022/03/17 10:03:27;;;;;;;0.70;0.60;;;17.10;63.90;;;;;;4996817;28;20097;-13
2022/03/17 10:05:55;;;;;;;2.17;0.50;;;17.10;64.00;;;;;;4997547;28;20042;-14
2022/03/17 10:08:23;;;;;;;0.73;0.45;;;17.10;64.00;;;;;;4996540;28;20093;-13
2022/03/17 10:10:49;;;;;;;0.50;0.40;;;17.10;63.90;;;;;;4997789;28;20124;-13
2022/03/17 10:13:20;;;;;;;0.40;0.40;;;17.10;63.80;;;;;;4997925;28;20042;-13
2022/03/17 10:15:47;;;;;;;0.50;0.45;;;17.10;63.80;;;;;;4997480;28;20057;-13
2022/03/17 10:18:25;;;;;;;0.50;0.50;;;17.20;63.70;;;;;;4997070;28;20482;-14
2022/03/17 10:21:10;;;;;;;0.50;0.50;;;17.20;63.70;;;;;;4997244;28;20069;-13
2022/03/17 10:23:51;;;;;;;0.75;0.40;;;17.20;63.60;;;;;;4996889;28;20049;-14
2022/03/17 10:26:39;;;;;;;0.80;0.57;;;17.30;63.50;;;;;;4996408;28;20133;-16
2022/03/17 10:29:13;;;;;;;0.75;0.60;;;17.30;63.30;;;;;;4994051;28;20046;-14
2022/03/17 10:32:05;;;;;;;0.47;0.40;;;17.30;63.20;;;;;;4977517;28;20054;-13
2022/03/17 10:34:36;;;;;;;0.40;0.40;;;17.40;63.20;;;;;;4977400;28;20043;-14
2022/03/17 10:37:21;;;;;;;0.50;0.50;;;17.40;63.20;;;;;;4978980;28;20042;-14
2022/03/17 10:39:54;;;;;;;0.93;0.55;;;17.40;63.20;;;;;;4996403;28;20054;-14
2022/03/17 10:42:21;;;;;;;0.50;0.50;;;17.40;63.10;;;;;;4996501;28;20039;-14
2022/03/17 10:44:48;;;;;;;0.40;0.30;;;17.50;63.10;;;;;;4996886;28;20047;-14
2022/03/17 10:47:14;;;;;;;0.50;0.50;;;17.50;63.00;;;;;;4997202;28;20085;-14
2022/03/17 10:49:55;;;;;;;0.73;0.63;;;17.50;63.00;;;;;;4995927;28;20092;-14
2022/03/17 10:52:21;;;;;;;1.65;0.60;;;17.50;62.90;;;;;;4995246;28;20050;-14
2022/03/17 10:54:56;;;;;;;0.50;0.50;;;17.50;62.80;;;;;;4995056;28;20061;-13
2022/03/17 10:57:24;;;;;;;0.70;0.70;;;17.50;62.80;;;;;;4994842;28;20065;-13
2022/03/17 10:59:50;;;;;;;0.68;0.40;;;17.50;62.80;;;;;;4996991;28;20097;-14
2022/03/17 11:02:17;;;;;;;0.50;0.50;;;17.60;62.90;;;;;;4983875;28;20042;-13
2022/03/17 11:04:44;;;;;;;0.60;0.60;;;17.50;62.70;;;;;;4976824;28;20129;-14
2022/03/17 11:07:14;;;;;;;0.40;0.40;;;17.60;62.70;;;;;;4977240;28;20050;-14
2022/03/17 11:09:40;;;;;;;0.40;0.40;;;17.60;62.70;;;;;;4986772;28;20054;-13
2022/03/17 11:12:10;;;;;;;0.52;0.52;;;17.60;62.60;;;;;;4995462;28;20042;-15
2022/03/17 11:14:43;;;;;;;0.40;0.30;;;17.60;62.60;;;;;;4993352;28;20050;-14
2022/03/17 11:17:08;;;;;;;0.45;0.40;;;17.60;62.50;;;;;;4996547;28;20047;-14
2022/03/17 11:19:34;;;;;;;0.50;0.50;;;17.60;62.50;;;;;;4644685;28;10000370;-15
2022/03/17 11:22:09;;;;;;;0.55;0.40;;;17.60;62.40;;;;;;4983796;28;20172;-14
2022/03/17 11:24:37;;;;;;;0.70;0.40;;;17.70;62.30;;;;;;4987925;28;20046;-15
2022/03/17 11:27:10;;;;;;;0.35;0.35;;;17.70;62.30;;;;;;4987445;28;20043;-15
2022/03/17 11:29:39;;;;;;;0.40;0.40;;;17.70;63.00;;;;;;4981745;28;20065;-15
2022/03/17 11:32:08;;;;;;;1.08;0.50;;;17.80;63.00;;;;;;4993511;28;20052;-15
2022/03/17 11:34:37;;;;;;;0.57;0.40;;;17.70;62.30;;;;;;4995575;28;20100;-15
2022/03/17 11:37:27;;;;;;;0.65;0.28;;;17.80;62.40;;;;;;4986059;28;20038;-14
2022/03/17 11:39:53;;;;;;;0.38;0.38;;;17.70;62.20;;;;;;4994446;28;20066;-14
2022/03/17 11:42:41;;;;;;;1.55;0.30;;;17.80;62.20;;;;;;4990454;28;20046;-15
2022/03/17 11:45:15;;;;;;;6.95;0.40;;;17.70;62.10;;;;;;4990240;28;20411;-14
2022/03/17 11:47:46;;;;;;;0.40;0.40;;;17.80;62.10;;;;;;4994067;28;20050;-14
2022/03/17 11:50:21;;;;;;;0.52;0.30;;;17.80;62.10;;;;;;4995744;28;20034;-15
2022/03/17 11:53:03;;;;;;;0.30;0.20;;;17.80;62.00;;;;;;4993269;28;20038;-14
2022/03/17 11:55:48;;;;;;;0.30;0.30;;;17.80;61.90;;;;;;4983640;28;20463;-14
2022/03/17 11:58:47;;;;;;;0.47;0.25;;;17.90;61.90;;;;;;4986299;28;20048;-14
2022/03/17 12:01:13;;;;;;;0.40;0.40;;;17.80;61.90;;;;;;4995262;28;20046;-14
2022/03/17 12:03:43;;;;;;;1.45;0.20;;;17.80;61.80;;;;;;4987106;28;20130;-15
2022/03/17 12:06:12;;;;;;;0.30;0.30;;;17.90;61.90;;;;;;4976618;28;20039;-15
2022/03/17 12:08:46;;;;;;;0.88;0.40;;;17.80;61.80;;;;;;4984429;28;20038;-15
2022/03/17 12:11:13;;;;;;;0.20;0.20;;;17.90;61.80;;;;;;4994961;28;20054;-14
2022/03/17 12:13:39;;;;;;;0.47;0.30;;;17.90;61.80;;;;;;4995151;28;20102;-15
2022/03/17 12:16:06;;;;;;;0.25;0.20;;;17.90;61.70;;;;;;4994620;28;20173;-13
2022/03/17 12:19:00;;;;;;;0.35;0.20;;;17.90;61.80;;;;;;4995074;28;20042;-13
2022/03/17 12:22:08;;;;;;;0.20;0.20;;;18.00;61.70;;;;;;4994726;28;20046;-14
2022/03/17 12:24:58;;;;;;;0.30;0.25;;;17.90;61.80;;;;;;4984538;28;20042;-14
2022/03/17 12:27:36;;;;;;;0.20;0.20;;;18.00;61.80;;;;;;4987274;28;20045;-14
2022/03/17 12:30:13;;;;;;;0.38;0.30;;;18.00;61.80;;;;;;4986220;28;20518;-14
2022/03/17 12:32:40;;;;;;;0.30;0.20;;;18.00;61.90;;;;;;4996638;28;20054;-14
2022/03/17 12:35:09;;;;;;;0.40;0.40;;;18.00;61.90;;;;;;4991804;28;20042;-14
2022/03/17 12:37:34;;;;;;;0.20;0.20;;;18.00;61.90;;;;;;4978750;28;20053;-13
2022/03/17 12:40:02;;;;;;;0.90;0.50;;;18.10;62.00;;;;;;4992056;28;20038;-14
2022/03/17 12:42:33;;;;;;;0.30;0.20;;;18.10;62.00;;;;;;4988669;28;20042;-14
2022/03/17 12:45:08;;;;;;;0.43;0.30;;;18.10;62.10;;;;;;4992788;28;20049;-13
2022/03/17 12:47:35;;;;;;;0.65;0.40;;;18.00;62.10;;;;;;4992073;28;20122;-14
2022/03/17 12:50:06;;;;;;;0.40;0.40;;;18.10;62.30;;;;;;4993739;28;20046;-14
2022/03/17 12:52:32;;;;;;;0.38;0.30;;;18.10;62.40;;;;;;4994181;28;20069;-13
2022/03/17 12:54:59;;;;;;;0.57;0.50;;;18.10;62.40;;;;;;4993734;28;20038;-14
2022/03/17 12:57:26;;;;;;;0.75;0.30;;;18.10;62.40;;;;;;4995229;28;20050;-14
2022/03/17 12:59:51;;;;;;;0.60;0.30;;;18.10;62.40;;;;;;4995225;28;20080;-13
2022/03/17 13:02:18;;;;;;;0.30;0.30;;;18.10;62.40;;;;;;4995404;28;20046;-13